Weather at Munich Airport

Public forecast

Using degrees Celsius for public forecast. Weather courtesy of forecast.io.

Current aviation weather report (METAR) for Munich Airport

Retrieved 2022/01/26 19:20 UTC (38 minutes ago):

EDDM 261920Z 27006KT 7000 OVC006 M00/M02 Q1029 NOSIG

Aviation forecast (TAF) for Munich Airport

Retrieved 2022/01/26 18:53 UTC (1 hour ago):

TAF EDDM 261700Z 2618/2724 28005KT 6000 OVC008 PROB30 TEMPO 2618/2724 4000 BR OVC004 BECMG 2700/2703 4000 BR OVC004 BECMG 2706/2709 CAVOK BECMG 2710/2712 26010KT TEMPO 2718/2724 RA BKN012